Time;durP1;ratioP1;P1;durP2;ratioP2;P2;SDS_P1;SDS_P2;PMS_P1;PMS_P2;Temp;Humidity;BMP_temperature;BMP_pressure;BME280_temperature;BME280_humidity;BME280_pressure;Samples;Min_cycle;Max_cycle;Signal;HPM_P1;HPM_P2
2022/06/06 00:00:48;;;;;;;74.55;38.65;;;15.50;99.90;;;;;;5046123;28;20020;-89
2022/06/06 00:03:17;;;;;;;74.45;38.15;;;15.40;99.90;;;;;;5056976;28;20083;-84
2022/06/06 00:05:48;;;;;;;66.82;37.53;;;15.30;99.90;;;;;;5045741;28;20039;-84
2022/06/06 00:08:16;;;;;;;68.00;35.58;;;15.30;99.90;;;;;;5059935;28;20032;-86
2022/06/06 00:10:45;;;;;;;72.97;36.22;;;15.20;99.90;;;;;;5077172;28;20036;-89
2022/06/06 00:13:14;;;;;;;60.22;32.28;;;15.10;99.90;;;;;;5070571;28;20048;-89
2022/06/06 00:15:41;;;;;;;62.25;33.75;;;15.10;99.90;;;;;;5057589;28;20036;-90
2022/06/06 00:18:07;;;;;;;72.13;41.67;;;15.10;99.90;;;;;;5033323;28;20040;-89
2022/06/06 00:20:35;;;;;;;72.50;40.33;;;15.10;99.90;;;;;;5014089;28;20327;-89
2022/06/06 00:23:02;;;;;;;61.85;36.60;;;15.00;99.90;;;;;;5052151;28;20399;-89
2022/06/06 00:25:29;;;;;;;65.45;39.65;;;15.00;99.90;;;;;;5060648;28;20028;-89
2022/06/06 00:27:56;;;;;;;64.00;38.40;;;15.00;99.90;;;;;;5066692;28;20036;-88
2022/06/06 00:30:22;;;;;;;60.30;36.42;;;14.90;99.90;;;;;;5048208;28;20509;-88
2022/06/06 00:35:36;;;;;;;63.25;35.20;;;14.90;99.90;;;;;;5053606;28;20028;-91
2022/06/06 00:38:03;;;;;;;49.95;30.77;;;15.00;99.90;;;;;;5042721;28;20051;-89
2022/06/06 00:40:31;;;;;;;55.80;31.90;;;14.90;99.90;;;;;;5065133;28;20028;-90
2022/06/06 00:42:57;;;;;;;56.85;34.35;;;14.90;99.90;;;;;;5049189;28;20043;-89
2022/06/06 00:45:44;;;;;;;59.83;35.00;;;15.00;99.90;;;;;;5037272;28;20051;-89
2022/06/06 00:48:26;;;;;;;51.10;30.50;;;14.90;99.90;;;;;;5062005;28;20028;-88
2022/06/06 00:51:07;;;;;;;54.10;32.05;;;14.90;99.90;;;;;;5056138;28;20043;-90
2022/06/06 00:53:39;;;;;;;52.38;30.58;;;14.90;99.90;;;;;;5071080;28;20029;-90
2022/06/06 00:56:31;;;;;;;51.97;30.30;;;14.90;99.90;;;;;;5052129;28;20031;-90
2022/06/06 00:59:03;;;;;;;43.80;26.13;;;14.90;99.90;;;;;;5058840;28;20688;-91
2022/06/06 01:01:33;;;;;;;37.55;24.80;;;14.90;99.90;;;;;;5053727;28;20032;-90
2022/06/06 01:04:04;;;;;;;42.15;26.88;;;14.90;99.90;;;;;;5068825;28;20028;-90
2022/06/06 01:06:35;;;;;;;42.58;26.00;;;14.80;99.90;;;;;;5048476;28;20055;-89
2022/06/06 01:09:04;;;;;;;41.33;26.13;;;14.80;99.90;;;;;;5050793;28;20044;-88
2022/06/06 01:11:37;;;;;;;37.20;23.88;;;14.80;99.90;;;;;;5050214;28;20028;-89
2022/06/06 01:14:06;;;;;;;41.67;22.77;;;14.80;99.90;;;;;;5058892;28;20032;-89
2022/06/06 01:16:50;;;;;;;38.60;23.00;;;14.80;99.90;;;;;;5068669;28;20028;-90
2022/06/06 01:19:33;;;;;;;33.50;21.30;;;14.90;99.90;;;;;;5065961;28;20043;-89
2022/06/06 01:22:11;;;;;;;44.30;24.30;;;14.90;99.90;;;;;;5056699;28;20011;-89
2022/06/06 01:24:46;;;;;;;40.85;21.63;;;14.90;99.90;;;;;;5055563;28;20588;-90
2022/06/06 01:27:31;;;;;;;38.65;22.90;;;14.80;99.90;;;;;;5056300;28;20044;-88
2022/06/06 01:30:09;;;;;;;35.83;21.60;;;14.90;99.90;;;;;;5051071;28;20028;-89
2022/06/06 01:32:43;;;;;;;38.58;23.23;;;14.90;99.90;;;;;;5053269;28;20486;-90
2022/06/06 01:35:20;;;;;;;39.58;22.50;;;14.90;99.90;;;;;;5057877;28;20036;-89
2022/06/06 01:37:46;;;;;;;43.58;23.55;;;14.90;99.90;;;;;;5049464;28;20043;-90
2022/06/06 01:40:18;;;;;;;37.08;22.30;;;14.90;99.90;;;;;;5065547;28;20036;-89
2022/06/06 01:42:56;;;;;;;37.40;21.45;;;14.90;99.90;;;;;;5054961;28;20040;-91
2022/06/06 01:45:35;;;;;;;32.50;20.48;;;14.90;99.90;;;;;;5055805;28;20035;-90
2022/06/06 01:48:13;;;;;;;31.52;19.13;;;14.90;99.90;;;;;;5051905;28;20040;-92
2022/06/06 01:50:43;;;;;;;31.38;18.27;;;14.90;99.90;;;;;;5070070;28;20471;-91
2022/06/06 01:53:14;;;;;;;31.75;19.15;;;14.90;99.90;;;;;;5053516;28;20474;-91
2022/06/06 01:55:43;;;;;;;38.72;21.17;;;14.90;99.90;;;;;;5070870;28;20414;-91
2022/06/06 01:58:21;;;;;;;37.17;21.70;;;14.80;99.90;;;;;;5057308;28;20047;-91
2022/06/06 02:00:48;;;;;;;39.30;21.70;;;14.80;99.90;;;;;;5054942;28;20517;-92
2022/06/06 02:03:15;;;;;;;30.30;19.83;;;14.80;99.90;;;;;;5052648;28;20042;-92
2022/06/06 02:05:44;;;;;;;28.42;18.58;;;14.80;99.90;;;;;;5054671;28;20028;-92
2022/06/06 02:08:17;;;;;;;30.73;18.48;;;14.80;99.90;;;;;;5042321;28;20041;-92
2022/06/06 02:10:46;;;;;;;27.52;16.65;;;14.80;99.90;;;;;;5056789;28;20031;-90
2022/06/06 02:13:13;;;;;;;26.23;16.02;;;14.80;99.90;;;;;;5069494;28;20052;-92
2022/06/06 02:15:40;;;;;;;24.98;15.65;;;14.80;99.90;;;;;;5060500;28;20047;-92
2022/06/06 02:18:07;;;;;;;30.40;18.85;;;14.90;99.90;;;;;;5052569;28;20031;-92
2022/06/06 02:20:35;;;;;;;26.70;17.38;;;14.80;99.90;;;;;;5051339;28;20036;-92
2022/06/06 02:23:02;;;;;;;32.65;19.13;;;14.80;99.90;;;;;;5060530;28;20040;-90
2022/06/06 02:25:30;;;;;;;33.15;19.52;;;14.80;99.90;;;;;;5054349;28;20040;-91
2022/06/06 02:27:59;;;;;;;34.67;19.63;;;14.80;99.90;;;;;;5057741;28;20055;-91
2022/06/06 02:30:29;;;;;;;37.33;20.90;;;14.80;99.90;;;;;;5056587;28;20028;-91
2022/06/06 02:32:58;;;;;;;33.15;20.70;;;14.80;99.90;;;;;;5058899;28;20040;-91
2022/06/06 02:35:29;;;;;;;29.70;17.88;;;14.80;99.90;;;;;;5046135;28;20031;-90
2022/06/06 02:37:56;;;;;;;33.78;18.77;;;14.80;99.90;;;;;;5065875;28;20024;-90
2022/06/06 02:40:27;;;;;;;31.05;18.00;;;14.90;99.90;;;;;;5058252;28;20043;-91
2022/06/06 02:42:56;;;;;;;34.17;19.20;;;14.90;99.90;;;;;;5048902;28;20035;-89
2022/06/06 02:45:23;;;;;;;34.17;19.05;;;14.90;99.90;;;;;;5071809;28;20036;-90
2022/06/06 02:47:53;;;;;;;33.90;18.90;;;14.90;99.90;;;;;;5051218;28;20039;-92
2022/06/06 02:50:22;;;;;;;28.25;16.42;;;15.00;99.90;;;;;;5048356;28;20076;-90
2022/06/06 02:52:49;;;;;;;39.25;22.00;;;15.00;99.90;;;;;;5062733;28;20025;-92
2022/06/06 02:55:16;;;;;;;41.95;22.52;;;15.00;99.90;;;;;;5051409;28;20028;-91
2022/06/06 02:57:51;;;;;;;42.25;24.48;;;15.00;99.90;;;;;;5049423;28;20024;-84
2022/06/06 03:00:25;;;;;;;39.92;21.98;;;15.00;99.90;;;;;;5045796;28;20028;-84
2022/06/06 03:02:52;;;;;;;41.28;23.23;;;15.00;99.90;;;;;;5057139;28;20032;-83
2022/06/06 03:05:19;;;;;;;37.13;20.73;;;15.00;99.90;;;;;;5076379;28;20047;-83
2022/06/06 03:08:05;;;;;;;41.90;24.60;;;15.10;99.90;;;;;;5056165;28;20110;-82
2022/06/06 03:10:51;;;;;;;37.28;22.98;;;15.00;99.90;;;;;;5078719;28;20031;-83
2022/06/06 03:13:44;;;;;;;45.63;22.95;;;15.00;99.90;;;;;;5059258;28;20016;-83
2022/06/06 03:23:00;;;;;;;45.17;23.85;;;15.10;99.90;;;;;;5077481;28;20063;-83
2022/06/06 03:25:36;;;;;;;43.37;22.13;;;15.10;99.90;;;;;;5064008;28;20032;-83
2022/06/06 03:28:22;;;;;;;44.08;22.77;;;15.10;99.90;;;;;;5062838;28;20058;-83
2022/06/06 03:31:08;;;;;;;40.85;21.42;;;15.10;99.90;;;;;;5075843;28;20044;-84
2022/06/06 03:34:03;;;;;;;41.95;23.70;;;15.20;99.90;;;;;;5046736;28;20517;-84
2022/06/06 03:36:46;;;;;;;38.67;21.00;;;15.10;99.90;;;;;;5049867;28;20028;-84
2022/06/06 03:39:31;;;;;;;40.05;22.08;;;15.10;99.90;;;;;;5045268;28;20041;-84
2022/06/06 03:42:22;;;;;;;45.58;23.60;;;15.20;99.90;;;;;;5060814;28;20388;-84
2022/06/06 03:45:10;;;;;;;48.88;24.42;;;15.20;99.90;;;;;;5043371;28;20493;-83
2022/06/06 03:47:42;;;;;;;40.88;23.65;;;15.20;99.90;;;;;;5056280;28;20044;-82
2022/06/06 03:50:19;;;;;;;;;;;15.20;99.90;;;;;;5076650;28;20036;-83
2022/06/06 03:53:02;;;;;;;41.78;23.20;;;15.20;99.90;;;;;;5041150;28;19919;-83
2022/06/06 03:55:32;;;;;;;;;;;15.20;99.90;;;;;;5076993;28;20016;-83
2022/06/06 03:58:01;;;;;;;52.63;26.40;;;15.20;99.90;;;;;;5074585;28;19911;-83
2022/06/06 04:00:28;;;;;;;45.70;25.00;;;15.20;99.90;;;;;;5079648;28;21353;-83
2022/06/06 04:02:56;;;;;;;47.65;26.08;;;15.20;99.90;;;;;;5073949;28;20394;-83
2022/06/06 04:05:23;;;;;;;41.15;23.17;;;15.20;99.90;;;;;;5076703;28;20028;-83
2022/06/06 04:07:50;;;;;;;37.95;21.48;;;15.30;99.90;;;;;;5059149;28;20031;-83
2022/06/06 04:10:17;;;;;;;38.28;21.60;;;15.20;99.90;;;;;;5062449;28;20410;-83
2022/06/06 04:13:17;;;;;;;36.95;21.70;;;15.30;99.90;;;;;;5059628;28;20142;-82
2022/06/06 04:16:01;;;;;;;35.22;21.52;;;15.30;99.90;;;;;;5063197;28;20032;-83
2022/06/06 04:18:46;;;;;;;35.15;20.10;;;15.30;99.90;;;;;;5041938;28;20031;-83
2022/06/06 04:21:36;;;;;;;39.50;21.73;;;15.30;99.90;;;;;;5062858;28;20028;-83
2022/06/06 04:24:35;;;;;;;37.22;21.30;;;15.30;99.90;;;;;;5064228;28;20052;-83
2022/06/06 04:27:46;;;;;;;39.15;22.90;;;15.30;99.90;;;;;;5025320;28;20045;-83
2022/06/06 04:30:31;;;;;;;41.83;25.83;;;15.30;99.90;;;;;;5079803;28;20028;-83
2022/06/06 04:33:05;;;;;;;45.10;27.30;;;15.30;99.90;;;;;;5065339;28;20021;-82
2022/06/06 04:35:58;;;;;;;49.10;28.25;;;15.20;99.90;;;;;;5047308;28;22032;-83
2022/06/06 04:38:43;;;;;;;42.83;24.92;;;15.20;99.90;;;;;;5044788;28;20062;-83
2022/06/06 04:41:28;;;;;;;46.60;26.75;;;15.20;99.90;;;;;;5061062;28;20466;-83
2022/06/06 04:44:12;;;;;;;59.45;33.65;;;15.20;99.90;;;;;;5062547;28;20130;-82
2022/06/06 04:46:53;;;;;;;56.72;33.97;;;15.20;99.90;;;;;;5063981;28;20050;-82
2022/06/06 04:49:21;;;;;;;60.78;35.80;;;15.20;99.90;;;;;;5045895;28;20028;-82
2022/06/06 04:51:50;;;;;;;57.83;32.88;;;15.10;99.90;;;;;;5064091;28;20016;-82
2022/06/06 04:54:21;;;;;;;61.85;35.30;;;15.20;99.90;;;;;;5048913;28;20016;-82
2022/06/06 04:56:49;;;;;;;58.38;35.30;;;15.10;99.90;;;;;;5062719;28;20600;-82
2022/06/06 04:59:17;;;;;;;55.60;33.67;;;15.10;99.90;;;;;;5058759;28;20497;-82
2022/06/06 05:01:43;;;;;;;56.88;33.30;;;15.10;99.90;;;;;;5050355;28;20491;-82
2022/06/06 05:04:10;;;;;;;49.55;29.75;;;15.20;99.90;;;;;;5046473;28;20036;-82
2022/06/06 05:07:03;;;;;;;48.13;31.75;;;15.20;99.90;;;;;;5032213;28;20028;-82
2022/06/06 05:10:00;;;;;;;46.30;29.48;;;15.10;99.90;;;;;;5047574;28;20398;-82
2022/06/06 05:13:03;;;;;;;44.70;29.73;;;15.10;99.90;;;;;;5046156;28;20466;-83
2022/06/06 05:15:38;;;;;;;42.95;28.00;;;15.10;99.90;;;;;;5067273;28;20020;-81
2022/06/06 05:18:22;;;;;;;43.08;28.20;;;15.10;99.90;;;;;;5038595;28;20036;-82
2022/06/06 05:21:20;;;;;;;45.85;28.80;;;15.10;99.90;;;;;;5051830;28;20455;-82
2022/06/06 05:24:11;;;;;;;47.78;31.73;;;15.10;99.90;;;;;;5046999;28;20453;-83
2022/06/06 05:26:46;;;;;;;43.00;26.58;;;15.10;99.90;;;;;;5079368;28;20020;-82
2022/06/06 05:29:46;;;;;;;40.55;27.35;;;15.10;99.90;;;;;;5059892;28;20356;-83
2022/06/06 05:32:24;;;;;;;40.63;26.88;;;15.10;99.90;;;;;;5076706;28;20476;-83
2022/06/06 05:35:38;;;;;;;36.45;26.52;;;15.10;99.90;;;;;;5064157;28;20020;-82
2022/06/06 05:38:42;;;;;;;38.17;26.98;;;15.10;99.90;;;;;;5015098;28;20381;-82
2022/06/06 05:41:49;;;;;;;39.92;26.52;;;15.20;99.90;;;;;;5061476;28;20379;-81
2022/06/06 05:44:37;;;;;;;42.42;28.08;;;15.20;99.90;;;;;;5018646;28;20026;-81
2022/06/06 05:47:11;;;;;;;36.13;26.38;;;15.20;99.90;;;;;;4998155;28;20033;-81
2022/06/06 05:49:59;;;;;;;31.08;23.20;;;15.20;99.90;;;;;;5046240;28;20237;-81
2022/06/06 05:52:51;;;;;;;35.60;23.23;;;15.30;99.90;;;;;;5063186;28;20024;-81
2022/06/06 05:55:34;;;;;;;31.75;22.88;;;15.30;99.90;;;;;;5067423;28;20479;-81
2022/06/06 05:58:36;;;;;;;32.20;23.70;;;15.40;99.90;;;;;;5057608;28;20035;-80
2022/06/06 06:01:22;;;;;;;27.95;19.27;;;15.40;99.90;;;;;;4958640;28;20061;-81
2022/06/06 06:04:07;;;;;;;27.27;20.40;;;15.60;99.90;;;;;;5086018;28;20035;-80
2022/06/06 06:06:55;;;;;;;24.77;17.35;;;15.80;99.90;;;;;;5046659;28;20387;-81
2022/06/06 06:09:22;;;;;;;22.25;17.38;;;15.90;99.90;;;;;;5058504;28;20043;-80
2022/06/06 06:11:48;;;;;;;19.60;14.35;;;16.00;99.90;;;;;;5057247;28;20044;-80
2022/06/06 06:14:33;;;;;;;18.27;14.75;;;16.10;99.90;;;;;;5043735;28;20484;-80
2022/06/06 06:17:01;;;;;;;16.98;12.82;;;16.30;99.90;;;;;;5043927;28;20522;-80
2022/06/06 06:19:40;;;;;;;19.13;13.57;;;16.60;99.90;;;;;;5047124;28;20051;-80
2022/06/06 06:22:10;;;;;;;17.48;13.13;;;16.80;99.90;;;;;;5063318;28;20028;-81
2022/06/06 06:24:41;;;;;;;12.45;10.50;;;16.80;99.90;;;;;;5062092;28;20043;-81
2022/06/06 06:27:10;;;;;;;11.55;9.18;;;16.90;99.90;;;;;;5046803;28;20027;-81
2022/06/06 06:29:36;;;;;;;14.35;10.80;;;17.10;99.90;;;;;;5057390;28;20519;-81
2022/06/06 06:32:21;;;;;;;18.33;10.70;;;17.20;99.90;;;;;;5062481;28;20039;-81
2022/06/06 06:35:06;;;;;;;13.57;9.88;;;17.20;99.90;;;;;;5048473;28;20036;-81
2022/06/06 06:37:54;;;;;;;14.23;10.05;;;17.10;99.90;;;;;;5059938;28;20410;-81
2022/06/06 06:40:53;;;;;;;12.05;9.30;;;16.90;99.90;;;;;;5057858;28;20040;-80
2022/06/06 06:43:41;;;;;;;10.43;7.80;;;16.70;99.90;;;;;;5045816;28;20036;-81
2022/06/06 06:46:15;;;;;;;12.88;8.40;;;16.90;99.90;;;;;;5078315;28;20038;-80
2022/06/06 06:48:46;;;;;;;12.85;9.45;;;17.10;99.90;;;;;;5042800;28;20059;-80
2022/06/06 06:51:22;;;;;;;14.75;9.70;;;17.00;99.90;;;;;;5062441;28;20040;-80
2022/06/06 06:54:27;;;;;;;9.90;8.18;;;16.90;99.90;;;;;;5076769;28;20470;-80
2022/06/06 06:57:06;;;;;;;12.27;8.27;;;16.80;99.90;;;;;;5041958;28;20184;-83
2022/06/06 06:59:55;;;;;;;10.02;8.55;;;16.80;99.90;;;;;;5075842;28;20399;-83
2022/06/06 07:08:34;;;;;;;10.25;7.53;;;16.90;99.90;;;;;;5071771;28;20023;-80
2022/06/06 07:11:30;;;;;;;8.77;6.38;;;17.10;99.90;;;;;;5062229;28;20040;-80
2022/06/06 07:14:04;;;;;;;8.35;5.68;;;17.10;99.90;;;;;;5060742;28;20020;-81
2022/06/06 07:16:38;;;;;;;11.30;7.80;;;17.10;99.90;;;;;;5045650;28;20024;-80
2022/06/06 07:19:19;;;;;;;10.15;7.05;;;17.10;99.90;;;;;;5057525;28;20024;-81
2022/06/06 07:21:47;;;;;;;6.82;5.25;;;17.20;99.90;;;;;;5075145;28;20024;-80
2022/06/06 07:24:20;;;;;;;8.18;6.40;;;17.30;99.90;;;;;;5073191;28;20032;-82
2022/06/06 07:26:48;;;;;;;5.10;4.22;;;17.30;99.90;;;;;;5051073;28;20039;-82
2022/06/06 07:29:19;;;;;;;8.35;6.53;;;17.50;99.90;;;;;;5026805;28;20468;-85
2022/06/06 07:31:55;;;;;;;9.85;6.72;;;17.60;99.90;;;;;;5075070;28;20474;-82
2022/06/06 07:34:43;;;;;;;8.80;6.57;;;17.60;99.90;;;;;;5060073;28;20028;-81
2022/06/06 07:37:29;;;;;;;12.57;7.50;;;17.60;99.90;;;;;;5059347;28;20037;-79
2022/06/06 07:40:03;;;;;;;8.18;5.90;;;17.60;99.90;;;;;;5076866;28;20529;-79
2022/06/06 07:42:42;;;;;;;8.27;5.63;;;17.70;99.90;;;;;;5042574;28;20028;-79
2022/06/06 07:45:27;;;;;;;7.50;5.00;;;17.90;99.90;;;;;;5048492;28;20052;-79
2022/06/06 07:48:12;;;;;;;6.40;4.30;;;18.10;99.90;;;;;;5057849;28;20036;-79
2022/06/06 07:50:59;;;;;;;6.28;3.92;;;18.20;99.90;;;;;;5059386;28;20036;-80
2022/06/06 07:53:38;;;;;;;5.82;3.85;;;18.30;99.90;;;;;;5040855;28;20027;-79
2022/06/06 07:56:27;;;;;;;4.78;3.67;;;18.40;99.90;;;;;;5066722;28;20047;-80
2022/06/06 07:59:12;;;;;;;5.78;2.80;;;18.50;99.90;;;;;;5048329;28;20511;-80
2022/06/06 08:01:54;;;;;;;5.28;2.80;;;18.80;99.90;;;;;;5046776;28;20472;-79
2022/06/06 08:04:25;;;;;;;3.55;2.03;;;18.90;99.90;;;;;;5048204;28;20471;-79
2022/06/06 08:07:14;;;;;;;8.38;1.75;;;19.00;99.90;;;;;;5059993;28;20468;-79
2022/06/06 08:10:14;;;;;;;3.03;1.90;;;19.10;99.90;;;;;;5084274;28;20032;-79
2022/06/06 08:12:51;;;;;;;4.25;1.88;;;19.10;99.90;;;;;;5052097;28;20683;-79
2022/06/06 08:15:39;;;;;;;3.42;1.13;;;19.10;99.90;;;;;;5098684;28;20043;-79
2022/06/06 08:18:22;;;;;;;3.50;1.25;;;19.10;99.90;;;;;;5046856;28;20047;-78
2022/06/06 08:21:09;;;;;;;1.80;0.75;;;19.20;99.90;;;;;;5078917;28;20047;-78
2022/06/06 08:23:37;;;;;;;1.45;0.50;;;19.30;99.90;;;;;;5050891;28;20055;-78
2022/06/06 08:26:04;;;;;;;2.72;0.70;;;19.50;99.90;;;;;;5032120;28;20032;-78
2022/06/06 08:28:32;;;;;;;1.73;0.50;;;19.60;99.90;;;;;;5029194;28;20044;-77
2022/06/06 08:30:59;;;;;;;3.03;0.70;;;19.50;99.90;;;;;;5042758;28;20044;-79
2022/06/06 08:33:25;;;;;;;2.97;0.63;;;19.30;99.90;;;;;;5061062;28;20467;-80
2022/06/06 08:36:03;;;;;;;3.10;0.60;;;19.10;99.90;;;;;;5078402;28;20031;-81
2022/06/06 08:38:35;;;;;;;3.20;0.82;;;19.00;99.90;;;;;;5060904;28;20044;-81
2022/06/06 08:41:13;;;;;;;;;;;19.00;99.90;;;;;;5043245;28;20024;-79
2022/06/06 08:43:56;;;;;;;2.70;1.13;;;18.90;99.90;;;;;;5062848;28;19905;-78
2022/06/06 08:46:31;;;;;;;3.58;0.88;;;18.60;99.90;;;;;;5063094;28;20344;-78
2022/06/06 08:52:50;;;;;;;3.22;1.10;;;18.20;99.90;;;;;;5058534;28;20514;-78
2022/06/06 08:55:22;;;;;;;5.03;1.60;;;18.00;99.90;;;;;;5063058;28;20382;-79
2022/06/06 08:57:49;;;;;;;;;;;18.00;99.90;;;;;;5046698;28;20028;-78
2022/06/06 09:00:22;;;;;;;2.95;0.90;;;18.00;99.90;;;;;;5059466;28;22396;-78
2022/06/06 09:03:10;;;;;;;1.85;0.80;;;18.10;99.90;;;;;;5057937;28;20375;-78
2022/06/06 09:06:15;;;;;;;4.53;0.60;;;18.40;99.90;;;;;;5064354;28;20051;-78
2022/06/06 09:08:55;;;;;;;2.80;0.65;;;18.70;99.90;;;;;;5042135;28;20036;-78
2022/06/06 09:11:59;;;;;;;2.50;0.57;;;19.00;99.90;;;;;;5043410;28;20044;-78
2022/06/06 09:15:04;;;;;;;1.38;0.52;;;19.20;99.90;;;;;;5059689;28;20032;-77
2022/06/06 09:17:55;;;;;;;1.75;0.50;;;19.40;99.90;;;;;;5075197;28;20029;-77
2022/06/06 09:20:50;;;;;;;1.85;0.40;;;19.60;99.90;;;;;;5065160;28;20043;-79
2022/06/06 09:23:44;;;;;;;1.58;0.60;;;19.70;99.90;;;;;;5061883;28;20046;-78
2022/06/06 09:27:04;;;;;;;2.80;0.50;;;19.90;99.90;;;;;;5079405;28;20386;-81
2022/06/06 09:29:54;;;;;;;2.60;0.47;;;20.40;99.90;;;;;;5020437;28;20059;-79
2022/06/06 09:33:02;;;;;;;4.63;0.40;;;20.70;99.90;;;;;;5064903;28;20039;-78
2022/06/06 09:36:02;;;;;;;1.58;0.43;;;20.90;99.90;;;;;;5056570;28;20028;-78
2022/06/06 09:38:47;;;;;;;1.70;0.30;;;21.20;99.90;;;;;;5043180;28;20028;-78
2022/06/06 09:41:40;;;;;;;1.73;0.35;;;21.30;99.90;;;;;;5044603;28;20114;-78
2022/06/06 09:44:30;;;;;;;1.60;0.40;;;21.30;99.90;;;;;;5075130;28;20024;-78
2022/06/06 09:47:13;;;;;;;2.15;0.40;;;21.30;99.90;;;;;;5073493;28;20051;-78
2022/06/06 09:50:17;;;;;;;2.83;0.60;;;21.30;99.90;;;;;;5070244;28;20043;-78
2022/06/06 09:53:13;;;;;;;3.78;0.50;;;21.30;99.90;;;;;;5042871;28;20035;-79
2022/06/06 09:59:29;;;;;;;0.95;0.40;;;20.70;99.90;;;;;;5056315;28;20079;-79
2022/06/06 10:02:14;;;;;;;1.58;0.50;;;20.80;99.90;;;;;;5064889;28;20036;-78
2022/06/06 10:05:10;;;;;;;2.00;0.40;;;21.00;99.90;;;;;;5060984;28;20877;-79
2022/06/06 10:08:15;;;;;;;1.05;0.50;;;21.00;99.90;;;;;;5056071;28;20029;-79
2022/06/06 10:11:19;;;;;;;1.88;0.60;;;21.10;99.90;;;;;;5058076;28;20036;-79
2022/06/06 10:14:02;;;;;;;3.08;0.55;;;21.30;99.90;;;;;;5056122;28;20020;-79
2022/06/06 10:16:46;;;;;;;2.00;0.57;;;21.70;99.90;;;;;;5056819;28;20024;-79
2022/06/06 10:19:58;;;;;;;2.05;0.60;;;22.00;99.90;;;;;;5072878;28;20028;-79
2022/06/06 10:22:52;;;;;;;3.35;0.60;;;22.10;99.90;;;;;;5060138;28;20036;-79
2022/06/06 10:25:37;;;;;;;1.77;0.50;;;22.00;99.80;;;;;;5059537;28;20092;-79
2022/06/06 10:28:06;;;;;;;2.88;0.57;;;21.80;99.90;;;;;;5057428;28;20036;-79
2022/06/06 10:30:40;;;;;;;1.63;0.40;;;21.70;99.90;;;;;;5045048;28;20142;-80
2022/06/06 10:33:44;;;;;;;1.90;0.40;;;21.50;99.90;;;;;;5059984;28;20028;-80
2022/06/06 10:36:16;;;;;;;4.55;0.77;;;21.10;99.90;;;;;;5077005;28;20036;-87
2022/06/06 10:39:05;;;;;;;2.75;0.73;;;20.70;99.90;;;;;;5073590;28;20357;-86
2022/06/06 10:41:47;;;;;;;3.72;0.50;;;20.60;99.90;;;;;;5053751;28;20039;-86
2022/06/06 10:44:35;;;;;;;1.48;0.60;;;20.50;99.90;;;;;;5038163;28;20449;-87
2022/06/06 10:47:17;;;;;;;1.58;0.60;;;20.60;99.90;;;;;;5039348;28;20572;-86
2022/06/06 10:50:15;;;;;;;2.28;0.60;;;20.60;99.90;;;;;;5057676;28;20024;-86
2022/06/06 10:53:08;;;;;;;1.90;0.60;;;20.60;99.90;;;;;;5076822;28;20044;-86
2022/06/06 10:55:43;;;;;;;;;;;20.80;99.90;;;;;;5065654;28;20023;-86
2022/06/06 10:58:44;;;;;;;3.45;0.60;;;21.00;99.90;;;;;;5035809;28;20279;-86
2022/06/06 11:01:48;;;;;;;2.08;0.80;;;21.10;99.90;;;;;;5062904;28;20043;-86
2022/06/06 11:05:03;;;;;;;1.88;0.93;;;21.00;99.90;;;;;;5058763;28;20043;-85
2022/06/06 11:07:48;;;;;;;2.05;0.77;;;20.80;99.90;;;;;;5048860;28;20093;-86
2022/06/06 11:10:39;;;;;;;1.65;0.80;;;20.70;99.90;;;;;;5052727;28;20028;-86
2022/06/06 11:13:41;;;;;;;2.05;0.93;;;20.50;99.90;;;;;;5034779;28;20471;-86
2022/06/06 11:16:17;;;;;;;3.17;1.10;;;20.10;99.90;;;;;;5076909;28;20027;-85
2022/06/06 11:19:14;;;;;;;2.08;0.90;;;19.80;99.90;;;;;;5042268;28;20031;-86
2022/06/06 11:22:15;;;;;;;2.90;1.60;;;19.80;99.90;;;;;;5048669;28;20024;-86
2022/06/06 11:25:14;;;;;;;3.08;0.93;;;20.10;99.90;;;;;;5062467;28;20033;-86
2022/06/06 11:28:17;;;;;;;2.63;1.10;;;20.60;99.90;;;;;;5018838;28;20047;-85
2022/06/06 11:31:02;;;;;;;1.73;0.90;;;21.50;99.90;;;;;;5046898;28;20037;-84
2022/06/06 11:34:06;;;;;;;3.42;0.95;;;22.50;99.90;;;;;;5076876;28;20056;-84
2022/06/06 11:37:07;;;;;;;1.70;0.80;;;23.50;99.90;;;;;;5062085;28;20031;-85
2022/06/06 11:39:45;;;;;;;1.13;0.70;;;24.10;99.90;;;;;;5059512;28;20062;-85
2022/06/06 11:42:21;;;;;;;2.85;0.73;;;24.10;99.90;;;;;;5063872;28;20032;-85
2022/06/06 11:45:23;;;;;;;1.45;0.57;;;23.90;99.90;;;;;;5057350;28;20032;-86
2022/06/06 11:48:01;;;;;;;0.95;0.40;;;23.80;99.40;;;;;;5074406;28;20364;-87
2022/06/06 11:50:55;;;;;;;1.52;0.50;;;23.70;99.20;;;;;;5093810;28;20028;-86
2022/06/06 11:53:34;;;;;;;1.67;0.50;;;23.40;99.30;;;;;;5046444;28;20043;-86
2022/06/06 11:56:10;;;;;;;1.33;0.47;;;23.50;98.80;;;;;;5060824;28;20032;-86
2022/06/06 11:59:01;;;;;;;1.10;0.40;;;23.60;97.50;;;;;;5042163;28;20032;-85
2022/06/06 12:02:05;;;;;;;2.05;0.52;;;23.50;97.90;;;;;;5059761;28;20032;-85
2022/06/06 12:04:49;;;;;;;3.03;0.57;;;23.30;98.30;;;;;;5048776;28;20040;-86
2022/06/06 12:07:34;;;;;;;1.70;0.60;;;22.90;97.60;;;;;;5057693;28;20482;-85
2022/06/06 12:10:23;;;;;;;2.25;0.50;;;22.60;98.90;;;;;;5045496;28;20036;-85
2022/06/06 12:13:05;;;;;;;2.22;0.50;;;22.00;99.90;;;;;;5059203;28;20414;-86
2022/06/06 12:16:09;;;;;;;2.78;0.40;;;21.50;99.90;;;;;;5059656;28;20036;-85
2022/06/06 12:18:35;;;;;;;1.95;0.70;;;21.00;99.90;;;;;;5055858;28;20051;-86
2022/06/06 12:21:13;;;;;;;1.95;0.50;;;20.70;99.90;;;;;;5058092;28;20020;-86
2022/06/06 12:24:37;;;;;;;1.88;0.60;;;20.50;99.90;;;;;;5060250;28;20070;-85
2022/06/06 12:27:30;;;;;;;3.30;0.50;;;20.30;99.90;;;;;;4984814;28;20041;-85
2022/06/06 12:30:08;;;;;;;;;;;20.40;99.90;;;;;;4984931;28;20030;-85
2022/06/06 12:33:03;;;;;;;2.22;0.40;;;20.90;99.90;;;;;;5047037;28;19920;-85
2022/06/06 12:35:57;;;;;;;1.45;0.43;;;21.00;99.90;;;;;;5045023;28;20688;-85
2022/06/06 12:38:24;;;;;;;1.52;0.50;;;20.90;99.90;;;;;;5074103;28;20378;-84
2022/06/06 12:40:50;;;;;;;1.88;0.80;;;20.50;99.90;;;;;;5048473;28;20051;-85
2022/06/06 12:43:28;;;;;;;3.70;0.70;;;20.20;99.90;;;;;;5060870;28;20051;-86
2022/06/06 12:46:16;;;;;;;3.08;0.70;;;19.80;99.90;;;;;;5067450;28;20047;-86
2022/06/06 12:48:59;;;;;;;1.10;0.60;;;19.50;99.90;;;;;;5043804;28;20032;-85
2022/06/06 12:52:00;;;;;;;4.10;0.70;;;19.30;99.90;;;;;;5066081;28;20401;-85
2022/06/06 12:54:30;;;;;;;1.00;0.50;;;19.20;99.90;;;;;;5043220;28;20028;-86
2022/06/06 12:57:00;;;;;;;1.98;0.60;;;19.00;99.90;;;;;;5048864;28;20032;-86
2022/06/06 12:59:39;;;;;;;2.03;0.70;;;19.00;99.90;;;;;;5066772;28;20379;-87
2022/06/06 13:02:40;;;;;;;1.25;0.50;;;19.00;99.90;;;;;;5062298;28;20032;-87
2022/06/06 13:05:11;;;;;;;0.88;0.50;;;18.90;99.90;;;;;;5065704;28;20478;-86
2022/06/06 13:07:56;;;;;;;1.77;0.50;;;19.10;99.90;;;;;;5059345;28;20499;-86
2022/06/06 13:10:41;;;;;;;1.33;0.60;;;19.20;99.90;;;;;;5061786;28;20020;-85
2022/06/06 13:13:19;;;;;;;2.33;0.50;;;19.30;99.90;;;;;;5080038;28;20055;-86
2022/06/06 13:16:22;;;;;;;2.42;0.50;;;19.40;99.90;;;;;;5062677;28;20467;-87
2022/06/06 13:19:22;;;;;;;1.73;0.40;;;19.50;99.90;;;;;;5049371;28;20027;-87
2022/06/06 13:22:08;;;;;;;1.77;0.50;;;19.50;99.90;;;;;;5021437;28;20044;-86
2022/06/06 13:25:06;;;;;;;0.93;0.40;;;19.40;99.90;;;;;;5068218;28;20048;-87
2022/06/06 13:27:56;;;;;;;1.27;0.50;;;19.30;99.90;;;;;;5046482;28;20031;-87
2022/06/06 13:30:35;;;;;;;2.78;0.50;;;19.10;99.90;;;;;;5061289;28;20114;-84
2022/06/06 13:33:43;;;;;;;1.80;0.80;;;19.30;99.90;;;;;;5046093;28;20032;-86
2022/06/06 13:36:14;;;;;;;3.35;0.40;;;19.50;99.90;;;;;;5023375;28;20039;-87
2022/06/06 13:38:55;;;;;;;2.10;0.40;;;19.90;99.90;;;;;;5046077;28;20036;-86
2022/06/06 13:41:43;;;;;;;1.50;0.50;;;20.10;99.90;;;;;;5062671;28;20036;-86
2022/06/06 13:44:29;;;;;;;2.35;0.73;;;20.20;99.90;;;;;;5046339;28;20057;-86
2022/06/06 13:47:26;;;;;;;1.55;0.50;;;20.10;99.90;;;;;;5056513;28;20043;-86
2022/06/06 13:50:02;;;;;;;1.80;0.32;;;20.00;99.90;;;;;;5064053;28;20439;-86
2022/06/06 13:52:50;;;;;;;3.58;0.50;;;19.80;99.90;;;;;;5048825;28;20039;-86
2022/06/06 13:55:28;;;;;;;3.60;0.40;;;19.60;99.90;;;;;;5079921;28;20024;-85
2022/06/06 13:58:28;;;;;;;1.65;0.40;;;19.40;99.90;;;;;;5063344;28;20024;-86
2022/06/06 14:01:28;;;;;;;4.25;0.50;;;19.30;99.90;;;;;;5061851;28;20024;-86
2022/06/06 14:04:27;;;;;;;2.03;0.35;;;19.30;99.90;;;;;;5061260;28;20544;-86
2022/06/06 14:07:20;;;;;;;4.07;0.38;;;19.40;99.90;;;;;;5059444;28;20754;-87
2022/06/06 14:09:49;;;;;;;;;;;19.40;99.90;;;;;;5079222;28;20047;-86
2022/06/06 14:12:34;;;;;;;1.40;0.50;;;19.40;99.90;;;;;;5047212;28;19912;-86
2022/06/06 14:15:11;;;;;;;2.30;0.55;;;19.30;99.90;;;;;;5066109;28;20047;-86